Time;durP1;ratioP1;P1;durP2;ratioP2;P2;SDS_P1;SDS_P2;PMS_P1;PMS_P2;Temp;Humidity;BMP_temperature;BMP_pressure;BME280_temperature;BME280_humidity;BME280_pressure;Samples;Min_cycle;Max_cycle;Signal;HPM_P1;HPM_P2
2022/07/23 00:01:20;;;;;;;8.15;6.28;;;18.50;91.50;;;;;;20997723;28;20033;-57
2022/07/23 00:11:22;;;;;;;9.30;6.38;;;18.50;91.30;;;;;;20971482;28;20052;-57
2022/07/23 00:21:25;;;;;;;8.88;6.43;;;18.40;92.10;;;;;;20969719;28;20041;-60
2022/07/23 00:31:27;;;;;;;8.70;6.63;;;18.30;92.90;;;;;;20969827;28;20033;-60
2022/07/23 00:41:30;;;;;;;12.95;7.25;;;18.20;93.00;;;;;;20950786;28;20028;-57
2022/07/23 00:51:33;;;;;;;10.02;6.50;;;18.20;93.50;;;;;;20968513;28;20059;-57
2022/07/23 01:01:36;;;;;;;10.48;7.20;;;18.30;93.70;;;;;;21027539;28;20032;-57
2022/07/23 01:11:38;;;;;;;11.32;7.45;;;18.30;94.10;;;;;;21033933;28;20048;-57
2022/07/23 01:21:47;;;;;;;10.05;6.80;;;18.20;94.40;;;;;;21052525;28;20032;-57
2022/07/23 01:31:49;;;;;;;10.68;8.23;;;18.30;94.70;;;;;;21052242;28;20053;-57
2022/07/23 01:41:52;;;;;;;12.52;9.50;;;18.20;96.20;;;;;;21050433;28;20085;-60
2022/07/23 01:52:01;;;;;;;14.40;10.35;;;18.20;98.10;;;;;;21066151;28;20028;-60
2022/07/23 02:02:15;;;;;;;10.93;9.48;;;18.20;99.50;;;;;;20982747;28;20527;-57
2022/07/23 02:12:17;;;;;;;11.57;10.38;;;18.20;99.90;;;;;;20980646;28;20567;-57
2022/07/23 02:22:21;;;;;;;12.57;9.35;;;18.20;99.90;;;;;;20963601;28;20032;-57
2022/07/23 02:32:24;;;;;;;8.85;7.95;;;18.10;99.90;;;;;;20963212;28;20036;-56
2022/07/23 02:42:27;;;;;;;11.05;8.23;;;18.10;99.10;;;;;;20961566;28;20032;-57
2022/07/23 02:52:29;;;;;;;11.13;7.88;;;18.10;98.20;;;;;;20977381;28;20176;-57
2022/07/23 03:02:31;;;;;;;8.50;7.15;;;18.10;97.80;;;;;;21028176;28;20035;-57
2022/07/23 03:12:33;;;;;;;10.02;7.38;;;18.30;97.00;;;;;;21042891;28;20496;-57
2022/07/23 03:22:36;;;;;;;7.93;6.85;;;18.30;96.30;;;;;;21059579;28;20481;-57
2022/07/23 03:32:40;;;;;;;9.55;6.80;;;18.40;95.30;;;;;;21041807;28;20040;-60
2022/07/23 03:42:43;;;;;;;11.98;6.80;;;18.40;94.80;;;;;;21057279;28;20047;-57
2022/07/23 03:52:45;;;;;;;9.73;6.47;;;18.40;95.00;;;;;;21056569;28;20032;-60
2022/07/23 04:02:48;;;;;;;8.48;6.30;;;18.40;94.70;;;;;;20970450;28;20097;-57
2022/07/23 04:12:50;;;;;;;7.03;6.28;;;18.30;94.40;;;;;;20953738;28;20498;-57
2022/07/23 04:22:53;;;;;;;13.00;7.38;;;18.20;94.50;;;;;;20970570;28;20448;-57
2022/07/23 04:32:56;;;;;;;9.43;6.70;;;18.10;95.60;;;;;;20953281;28;20041;-57
2022/07/23 04:43:03;;;;;;;10.43;7.25;;;18.10;96.10;;;;;;20969299;28;20036;-57
2022/07/23 04:53:08;;;;;;;11.27;7.40;;;18.30;96.50;;;;;;20969818;28;20090;-57
2022/07/23 05:03:11;;;;;;;9.05;6.85;;;18.80;96.10;;;;;;20961812;28;20060;-57
2022/07/23 05:13:17;;;;;;;11.30;7.75;;;19.10;95.70;;;;;;20950871;28;20045;-57
2022/07/23 05:23:20;;;;;;;7.97;7.18;;;19.70;95.10;;;;;;20950615;28;20036;-58
2022/07/23 05:33:24;;;;;;;8.35;7.35;;;20.30;93.80;;;;;;20949931;28;20040;-58
2022/07/23 05:43:28;;;;;;;10.35;6.85;;;20.70;94.10;;;;;;20949628;28;20044;-58
2022/07/23 05:53:33;;;;;;;11.57;7.10;;;20.80;93.70;;;;;;20933384;28;20505;-58
2022/07/23 06:04:05;;;;;;;11.63;8.50;;;21.70;92.00;;;;;;20873668;28;20049;-58
2022/07/23 06:14:12;;;;;;;10.38;7.57;;;22.40;89.90;;;;;;20881978;28;20056;-58
2022/07/23 06:24:29;;;;;;;11.00;7.07;;;22.00;90.10;;;;;;20876428;28;20049;-58
2022/07/23 06:34:31;;;;;;;8.68;7.43;;;22.80;87.70;;;;;;20880016;28;20029;-58
2022/07/23 06:44:34;;;;;;;8.60;5.80;;;25.10;80.00;;;;;;20895139;28;20032;-58
2022/07/23 06:54:36;;;;;;;7.25;5.15;;;25.90;75.30;;;;;;20896351;28;20033;-58
2022/07/23 07:04:39;;;;;;;6.00;5.50;;;26.70;72.80;;;;;;20960315;28;20665;-59
2022/07/23 07:14:41;;;;;;;5.82;5.22;;;27.50;70.80;;;;;;20975780;28;20497;-58
2022/07/23 07:24:44;;;;;;;5.63;5.13;;;27.80;68.90;;;;;;20959436;28;20040;-59
2022/07/23 07:34:47;;;;;;;7.63;5.50;;;28.00;68.90;;;;;;20973777;28;20480;-59
2022/07/23 07:44:50;;;;;;;8.38;5.32;;;29.00;68.00;;;;;;20972710;28;20386;-59
2022/07/23 07:54:52;;;;;;;5.50;4.47;;;29.80;65.90;;;;;;20972970;28;20093;-59
2022/07/23 08:04:57;;;;;;;6.30;4.65;;;29.60;66.70;;;;;;20972493;28;20056;-59
2022/07/23 08:14:59;;;;;;;10.20;4.60;;;30.80;65.10;;;;;;20971207;28;20098;-61
2022/07/23 08:25:02;;;;;;;8.45;5.18;;;31.40;63.10;;;;;;20970217;28;20068;-59
2022/07/23 08:35:05;;;;;;;7.68;5.55;;;31.90;62.20;;;;;;20968702;28;20551;-59
2022/07/23 08:45:09;;;;;;;12.55;6.07;;;32.20;60.50;;;;;;20983907;28;20044;-59
2022/07/23 08:55:20;;;;;;;10.43;6.13;;;30.70;61.50;;;;;;20967917;28;20075;-59
2022/07/23 09:05:23;;;;;;;7.93;5.47;;;30.60;62.40;;;;;;20967552;28;20029;-59
2022/07/23 09:15:25;;;;;;;5.97;4.63;;;31.00;61.10;;;;;;20967212;28;20075;-59
2022/07/23 09:25:27;;;;;;;5.13;3.90;;;31.90;60.50;;;;;;20950008;28;20041;-59
2022/07/23 09:35:51;;;;;;;4.72;3.97;;;31.20;61.10;;;;;;20966195;28;20090;-59
2022/07/23 09:45:53;;;;;;;7.03;4.88;;;31.30;58.90;;;;;;20965979;28;20041;-59
2022/07/23 09:56:00;;;;;;;5.15;4.22;;;31.40;60.40;;;;;;20970609;28;20041;-59
2022/07/23 10:06:02;;;;;;;8.50;5.00;;;31.50;59.60;;;;;;20981534;28;20041;-59
2022/07/23 10:16:38;;;;;;;9.90;5.70;;;31.60;60.00;;;;;;20724674;28;20045;-59
2022/07/23 10:26:53;;;;;;;10.38;6.03;;;31.20;60.40;;;;;;20723504;28;20499;-59
2022/07/23 10:37:26;;;;;;;;;;;30.70;60.90;;;;;;20723310;28;20491;-60
2022/07/23 10:57:49;;;;;;;8.93;8.13;;;33.30;57.50;;;;;;20911290;28;20037;-60
2022/07/23 11:08:03;;;;;;;8.50;7.47;;;33.50;57.60;;;;;;20910061;28;20037;-60
2022/07/23 11:18:06;;;;;;;;;;;34.30;55.40;;;;;;20910537;28;20049;-60
2022/07/23 11:28:16;;;;;;;9.02;7.95;;;34.60;56.60;;;;;;20909443;28;19928;-59
2022/07/23 11:38:23;;;;;;;11.77;8.65;;;34.80;55.70;;;;;;20908560;28;20486;-59
2022/07/23 11:48:28;;;;;;;10.57;9.38;;;34.90;55.50;;;;;;20907778;28;20102;-59
2022/07/23 11:58:31;;;;;;;11.90;10.50;;;34.60;56.00;;;;;;20906501;28;20082;-59
2022/07/23 12:08:40;;;;;;;12.35;10.80;;;34.80;55.60;;;;;;20907729;28;20524;-59
2022/07/23 12:18:43;;;;;;;11.38;10.38;;;33.80;55.50;;;;;;20938947;28;20618;-60
2022/07/23 12:28:52;;;;;;;11.13;9.77;;;33.50;56.30;;;;;;20970415;28;20041;-59
2022/07/23 12:38:54;;;;;;;11.88;10.27;;;34.40;55.00;;;;;;20969071;28;20474;-59
2022/07/23 12:48:57;;;;;;;12.57;10.82;;;34.40;55.90;;;;;;20968915;28;20401;-60
2022/07/23 12:59:11;;;;;;;12.30;10.95;;;35.50;53.90;;;;;;21006197;28;20032;-60
2022/07/23 13:09:22;;;;;;;12.27;11.07;;;34.90;53.50;;;;;;21052462;28;20044;-59
2022/07/23 13:19:24;;;;;;;14.40;10.88;;;34.90;55.00;;;;;;21050738;28;20113;-59
2022/07/23 13:29:27;;;;;;;13.00;11.18;;;34.30;55.80;;;;;;21049768;28;20040;-59
2022/07/23 13:39:29;;;;;;;14.48;12.15;;;34.30;56.00;;;;;;21049648;28;20393;-60
2022/07/23 13:49:32;;;;;;;15.25;11.52;;;34.80;55.90;;;;;;21049478;28;20652;-59
2022/07/23 13:59:36;;;;;;;13.73;10.25;;;35.00;55.90;;;;;;21005655;28;20040;-60
2022/07/23 14:09:38;;;;;;;12.75;10.02;;;34.00;57.70;;;;;;20965881;28;20619;-58
2022/07/23 14:19:42;;;;;;;10.50;9.50;;;33.00;58.40;;;;;;20964829;28;20546;-59
2022/07/23 14:29:44;;;;;;;11.20;10.00;;;32.70;59.10;;;;;;20980522;28;20142;-59
2022/07/23 14:39:48;;;;;;;9.73;8.73;;;32.60;59.00;;;;;;20966922;28;20428;-58
2022/07/23 14:49:50;;;;;;;10.38;9.43;;;31.60;62.00;;;;;;20995121;28;20559;-58
2022/07/23 14:59:53;;;;;;;13.55;8.90;;;31.00;63.60;;;;;;21022653;28;20044;-58
2022/07/23 15:09:56;;;;;;;10.75;9.52;;;30.00;65.50;;;;;;21059792;28;20102;-59
2022/07/23 15:19:59;;;;;;;17.90;10.55;;;30.30;66.70;;;;;;21059004;28;20078;-60
2022/07/23 15:30:02;;;;;;;13.82;11.55;;;33.00;63.20;;;;;;21058732;28;20473;-60
2022/07/23 15:40:06;;;;;;;15.48;11.20;;;34.60;60.40;;;;;;21058050;28;20040;-60
2022/07/23 15:50:09;;;;;;;14.48;11.23;;;35.30;58.50;;;;;;21057397;28;20090;-59
2022/07/23 16:00:12;;;;;;;;;;;34.60;58.30;;;;;;21007787;28;20047;-59
2022/07/23 16:10:15;;;;;;;13.32;9.73;;;33.70;56.60;;;;;;20973262;28;19912;-58
2022/07/23 16:20:19;;;;;;;13.85;11.93;;;31.40;59.00;;;;;;20953857;28;20052;-58
2022/07/23 16:30:22;;;;;;;17.33;12.10;;;29.40;65.50;;;;;;20935496;28;20071;-58
2022/07/23 16:40:24;;;;;;;13.40;10.77;;;27.90;70.50;;;;;;20968417;28;20097;-58
2022/07/23 16:50:29;;;;;;;11.32;10.18;;;27.70;71.20;;;;;;20967736;28;20063;-58
2022/07/23 17:00:33;;;;;;;14.55;11.10;;;27.10;72.60;;;;;;21018936;28;20435;-58
2022/07/23 17:10:36;;;;;;;14.63;11.13;;;26.70;73.30;;;;;;21050389;28;20089;-58
2022/07/23 17:20:39;;;;;;;13.45;11.15;;;26.00;73.80;;;;;;21049678;28;20397;-58
2022/07/23 17:30:42;;;;;;;13.15;10.32;;;25.60;74.10;;;;;;21049807;28;20096;-58
2022/07/23 17:40:44;;;;;;;12.45;10.77;;;25.10;76.60;;;;;;21049474;28;20056;-58
2022/07/23 17:50:47;;;;;;;11.52;10.32;;;24.60;77.40;;;;;;21049493;28;20036;-58
2022/07/23 18:00:50;;;;;;;20.08;13.32;;;24.10;79.50;;;;;;20994946;28;20437;-58
2022/07/23 18:10:53;;;;;;;12.05;10.70;;;23.50;82.80;;;;;;20964212;28;20048;-57
2022/07/23 18:20:56;;;;;;;16.55;12.48;;;23.00;85.10;;;;;;20976805;28;20466;-56
2022/07/23 18:30:59;;;;;;;16.70;12.25;;;22.50;85.80;;;;;;20978486;28;20086;-56
2022/07/23 18:41:02;;;;;;;15.43;11.88;;;22.30;87.70;;;;;;20977719;28;20133;-56
2022/07/23 18:51:05;;;;;;;15.27;12.25;;;21.80;89.70;;;;;;20976627;28;20094;-56
2022/07/23 19:01:11;;;;;;;18.73;13.60;;;21.50;90.60;;;;;;21028570;28;20039;-57
2022/07/23 19:11:14;;;;;;;28.83;15.05;;;21.40;90.50;;;;;;21039320;28;20043;-56
2022/07/23 19:21:19;;;;;;;24.70;14.35;;;21.30;90.90;;;;;;21053723;28;20052;-57
2022/07/23 19:31:21;;;;;;;18.95;13.00;;;21.10;91.50;;;;;;21054425;28;20078;-57
2022/07/23 19:41:24;;;;;;;16.13;12.02;;;20.70;92.40;;;;;;21052894;28;20040;-56
2022/07/23 19:51:26;;;;;;;16.10;12.15;;;20.30;93.40;;;;;;21053055;28;20039;-56
2022/07/23 20:01:30;;;;;;;12.90;11.55;;;19.90;94.30;;;;;;20992580;28;20431;-56
2022/07/23 20:11:33;;;;;;;18.63;12.10;;;19.60;95.20;;;;;;20900486;28;20045;-56
2022/07/23 20:21:43;;;;;;;18.48;12.27;;;19.40;95.80;;;;;;20901080;28;20492;-56
2022/07/23 20:31:48;;;;;;;16.88;14.00;;;19.30;96.40;;;;;;20894239;28;20482;-57
2022/07/23 20:41:50;;;;;;;15.43;11.38;;;19.40;96.50;;;;;;20958226;28;20036;-57
2022/07/23 20:51:52;;;;;;;14.63;11.52;;;19.50;96.60;;;;;;20964103;28;20037;-57
2022/07/23 21:01:55;;;;;;;16.48;11.43;;;19.30;96.70;;;;;;20962281;28;20110;-57
2022/07/23 21:11:57;;;;;;;13.65;9.95;;;19.60;96.50;;;;;;20963424;28;20461;-56
2022/07/23 21:22:00;;;;;;;11.82;10.02;;;19.80;96.00;;;;;;20913576;28;20037;-57
2022/07/23 21:32:04;;;;;;;9.70;8.30;;;19.70;96.00;;;;;;20879581;28;20111;-56
2022/07/23 21:42:07;;;;;;;18.45;9.77;;;19.70;96.00;;;;;;20879838;28;20032;-56
2022/07/23 21:52:09;;;;;;;10.05;8.20;;;19.70;95.90;;;;;;20886977;28;20063;-57
2022/07/23 22:02:12;;;;;;;11.40;9.38;;;19.50;96.10;;;;;;20960242;28;20094;-57
2022/07/23 22:12:14;;;;;;;13.40;8.75;;;19.40;96.30;;;;;;20979079;28;20121;-57
2022/07/23 22:22:17;;;;;;;11.38;8.13;;;19.30;96.50;;;;;;20979090;28;20082;-57
2022/07/23 22:32:20;;;;;;;12.15;7.38;;;19.30;96.60;;;;;;20978775;28;20028;-57
2022/07/23 22:42:23;;;;;;;8.40;7.45;;;19.30;96.30;;;;;;20978413;28;20036;-59
2022/07/23 22:52:25;;;;;;;9.85;7.60;;;19.40;96.20;;;;;;20977933;28;20094;-57
2022/07/23 23:02:27;;;;;;;10.35;7.35;;;19.30;96.40;;;;;;20975893;28;20106;-59
2022/07/23 23:12:30;;;;;;;8.10;7.05;;;19.30;96.50;;;;;;20976423;28;20049;-59
2022/07/23 23:22:33;;;;;;;10.35;7.05;;;19.20;96.40;;;;;;20976006;28;20074;-59
2022/07/23 23:32:35;;;;;;;9.73;6.30;;;19.00;96.20;;;;;;20974961;28;20032;-56
2022/07/23 23:42:39;;;;;;;10.68;6.40;;;18.90;96.10;;;;;;20976179;28;20036;-56
2022/07/23 23:52:41;;;;;;;9.43;6.68;;;18.70;96.30;;;;;;20975209;28;20037;-56
